Archival Weather

Chicago O'Hare International

Chicago, Illinois (KORD)

Report from: Saturday, March 31, 2012 2:51 PM CDT
Current time: Friday, June 21, 2024 7:18 PM CDT

Current weather – Weather history – Daily summaries
Weather forecast

Temperature8.3°C (46.9°F)
Wind chill6.1°C (43.0°F)
Dew point2.2°C (36.0°F)
Winds 7 kts (3.6 m/s, 8.1 mph) East-Southeast (110°)
Visibility10 mi. (16.1 km)
Clouds Scattered clouds 2,000 ft. (610 m)
Ceiling: Broken clouds 25,000 ft. (7,620 m)
Altimeter29.93 in.Hg (1014 mB)
Relative humidity65 %
Density altitude-715 ft. (-218 m)
Sea-level pressure101.4 kPa (1014 mB, 29.94 in.Hg)
Remarks System requires maintenance
Automated weather observing station with precipitation discriminator
Flight conditions Visual Meteorological Conditions
Raw data2012-03-31 19:51 KORD 311951Z 11007KT 10SM SCT020 BKN250 08/02 A2993 RMK AO2 SLP138 T00830022 $
An error has occurred. This application may no longer respond until reloaded. Reload 🗙